sensor_id;sensor_type;location;lat;lon;timestamp;pressure;altitude;pressure_sealevel;temperature;humidity
13367;BME280;6752;52.612;13.630;2022-09-09T00:00:25;100348.18;;;16.17;100.00
13367;BME280;6752;52.612;13.630;2022-09-09T00:05:38;100347.80;;;16.24;100.00
13367;BME280;6752;52.612;13.630;2022-09-09T00:10:30;100354.97;;;16.07;100.00
13367;BME280;6752;52.612;13.630;2022-09-09T00:15:35;100345.27;;;16.13;100.00
13367;BME280;6752;52.612;13.630;2022-09-09T00:26:01;100347.26;;;16.04;100.00
13367;BME280;6752;52.612;13.630;2022-09-09T00:30:56;100344.97;;;15.88;100.00
13367;BME280;6752;52.612;13.630;2022-09-09T00:35:59;100347.62;;;15.78;100.00
13367;BME280;6752;52.612;13.630;2022-09-09T00:41:06;100352.80;;;15.72;100.00
13367;BME280;6752;52.612;13.630;2022-09-09T00:46:21;100344.72;;;15.74;100.00
13367;BME280;6752;52.612;13.630;2022-09-09T00:51:25;100351.38;;;15.64;100.00
13367;BME280;6752;52.612;13.630;2022-09-09T00:56:22;100364.87;;;15.57;100.00
13367;BME280;6752;52.612;13.630;2022-09-09T01:01:23;100369.40;;;15.58;100.00
13367;BME280;6752;52.612;13.630;2022-09-09T01:06:35;100377.06;;;15.53;100.00
13367;BME280;6752;52.612;13.630;2022-09-09T01:11:55;100387.77;;;15.63;100.00
13367;BME280;6752;52.612;13.630;2022-09-09T01:17:11;100396.28;;;15.53;100.00
13367;BME280;6752;52.612;13.630;2022-09-09T01:22:26;100399.95;;;15.61;100.00
13367;BME280;6752;52.612;13.630;2022-09-09T01:27:25;100400.50;;;15.61;100.00
13367;BME280;6752;52.612;13.630;2022-09-09T01:32:41;100387.17;;;15.61;100.00
13367;BME280;6752;52.612;13.630;2022-09-09T01:37:42;100388.14;;;15.61;100.00
13367;BME280;6752;52.612;13.630;2022-09-09T01:42:44;100372.52;;;15.53;100.00
13367;BME280;6752;52.612;13.630;2022-09-09T01:47:47;100368.89;;;15.45;100.00
13367;BME280;6752;52.612;13.630;2022-09-09T01:52:50;100371.73;;;15.39;100.00
13367;BME280;6752;52.612;13.630;2022-09-09T01:58:10;100382.86;;;15.41;100.00
13367;BME280;6752;52.612;13.630;2022-09-09T02:03:11;100370.71;;;15.36;100.00
13367;BME280;6752;52.612;13.630;2022-09-09T02:08:11;100372.57;;;15.42;100.00
13367;BME280;6752;52.612;13.630;2022-09-09T02:13:14;100371.95;;;15.37;100.00
13367;BME280;6752;52.612;13.630;2022-09-09T02:18:17;100370.95;;;15.32;100.00
13367;BME280;6752;52.612;13.630;2022-09-09T02:23:18;100375.57;;;15.27;100.00
13367;BME280;6752;52.612;13.630;2022-09-09T02:28:21;100380.69;;;15.16;100.00
13367;BME280;6752;52.612;13.630;2022-09-09T02:33:27;100385.84;;;14.99;100.00
13367;BME280;6752;52.612;13.630;2022-09-09T02:38:29;100386.51;;;15.11;100.00
13367;BME280;6752;52.612;13.630;2022-09-09T02:43:32;100389.23;;;15.08;100.00
13367;BME280;6752;52.612;13.630;2022-09-09T02:48:59;100393.24;;;15.12;100.00
13367;BME280;6752;52.612;13.630;2022-09-09T02:53:40;100390.30;;;15.16;100.00
13367;BME280;6752;52.612;13.630;2022-09-09T02:58:41;100397.83;;;15.03;100.00
13367;BME280;6752;52.612;13.630;2022-09-09T03:03:44;100391.80;;;15.15;100.00
13367;BME280;6752;52.612;13.630;2022-09-09T03:08:46;100377.14;;;15.18;100.00
13367;BME280;6752;52.612;13.630;2022-09-09T03:13:49;100363.88;;;15.12;100.00
13367;BME280;6752;52.612;13.630;2022-09-09T03:18:51;100366.39;;;15.03;100.00
13367;BME280;6752;52.612;13.630;2022-09-09T03:23:53;100372.94;;;14.88;100.00
13367;BME280;6752;52.612;13.630;2022-09-09T03:28:56;100395.41;;;14.85;100.00
13367;BME280;6752;52.612;13.630;2022-09-09T03:33:58;100385.10;;;14.84;100.00
13367;BME280;6752;52.612;13.630;2022-09-09T03:39:00;100384.11;;;14.68;100.00
13367;BME280;6752;52.612;13.630;2022-09-09T03:44:02;100391.20;;;14.78;100.00
13367;BME280;6752;52.612;13.630;2022-09-09T03:49:04;100403.70;;;14.57;100.00
13367;BME280;6752;52.612;13.630;2022-09-09T03:54:07;100396.87;;;14.60;100.00
13367;BME280;6752;52.612;13.630;2022-09-09T03:59:09;100396.23;;;14.64;100.00
13367;BME280;6752;52.612;13.630;2022-09-09T04:04:11;100400.80;;;14.56;100.00
13367;BME280;6752;52.612;13.630;2022-09-09T04:09:14;100406.37;;;14.52;100.00
13367;BME280;6752;52.612;13.630;2022-09-09T04:14:16;100400.77;;;14.53;100.00
13367;BME280;6752;52.612;13.630;2022-09-09T04:19:18;100397.19;;;14.53;100.00
13367;BME280;6752;52.612;13.630;2022-09-09T04:24:20;100385.59;;;14.56;100.00
13367;BME280;6752;52.612;13.630;2022-09-09T04:29:23;100385.20;;;14.48;100.00
13367;BME280;6752;52.612;13.630;2022-09-09T04:34:25;100387.78;;;14.46;100.00
13367;BME280;6752;52.612;13.630;2022-09-09T04:39:28;100399.78;;;14.34;100.00
13367;BME280;6752;52.612;13.630;2022-09-09T04:44:30;100419.87;;;14.20;100.00
13367;BME280;6752;52.612;13.630;2022-09-09T04:49:32;100421.30;;;14.34;100.00
13367;BME280;6752;52.612;13.630;2022-09-09T04:54:35;100428.13;;;14.42;100.00
13367;BME280;6752;52.612;13.630;2022-09-09T04:59:37;100425.80;;;14.48;100.00
13367;BME280;6752;52.612;13.630;2022-09-09T05:04:39;100430.80;;;14.54;100.00
13367;BME280;6752;52.612;13.630;2022-09-09T05:09:42;100437.47;;;14.61;100.00
13367;BME280;6752;52.612;13.630;2022-09-09T05:14:44;100435.56;;;14.61;100.00
13367;BME280;6752;52.612;13.630;2022-09-09T05:19:46;100438.65;;;14.76;100.00
13367;BME280;6752;52.612;13.630;2022-09-09T05:24:49;100440.44;;;14.98;100.00
13367;BME280;6752;52.612;13.630;2022-09-09T05:29:51;100442.03;;;15.04;100.00
13367;BME280;6752;52.612;13.630;2022-09-09T05:34:53;100447.66;;;15.28;100.00
13367;BME280;6752;52.612;13.630;2022-09-09T05:39:56;100441.28;;;15.36;100.00
13367;BME280;6752;52.612;13.630;2022-09-09T05:44:58;100447.70;;;15.44;100.00
13367;BME280;6752;52.612;13.630;2022-09-09T05:50:01;100440.42;;;15.84;100.00
13367;BME280;6752;52.612;13.630;2022-09-09T05:55:03;100436.80;;;16.32;100.00
13367;BME280;6752;52.612;13.630;2022-09-09T06:00:05;100435.67;;;16.46;100.00
13367;BME280;6752;52.612;13.630;2022-09-09T06:05:08;100423.66;;;16.57;100.00
13367;BME280;6752;52.612;13.630;2022-09-09T06:10:10;100439.19;;;16.79;100.00
13367;BME280;6752;52.612;13.630;2022-09-09T06:15:12;100431.70;;;16.98;100.00
13367;BME280;6752;52.612;13.630;2022-09-09T06:20:15;100444.72;;;17.13;100.00
13367;BME280;6752;52.612;13.630;2022-09-09T06:25:17;100447.55;;;17.36;100.00
13367;BME280;6752;52.612;13.630;2022-09-09T06:30:20;100455.66;;;17.85;100.00
13367;BME280;6752;52.612;13.630;2022-09-09T06:35:22;100447.26;;;17.76;100.00
13367;BME280;6752;52.612;13.630;2022-09-09T06:40:24;100454.83;;;17.98;100.00
13367;BME280;6752;52.612;13.630;2022-09-09T06:45:27;100439.95;;;18.14;100.00
13367;BME280;6752;52.612;13.630;2022-09-09T06:50:29;100447.47;;;19.11;100.00
13367;BME280;6752;52.612;13.630;2022-09-09T06:55:32;100453.81;;;18.77;100.00
13367;BME280;6752;52.612;13.630;2022-09-09T07:00:34;100458.55;;;19.03;100.00
13367;BME280;6752;52.612;13.630;2022-09-09T07:05:36;100454.26;;;19.07;100.00
13367;BME280;6752;52.612;13.630;2022-09-09T07:10:39;100460.20;;;20.34;100.00
13367;BME280;6752;52.612;13.630;2022-09-09T07:15:41;100455.63;;;19.88;100.00
13367;BME280;6752;52.612;13.630;2022-09-09T07:20:52;100453.09;;;20.09;100.00
13367;BME280;6752;52.612;13.630;2022-09-09T07:25:46;100452.19;;;20.76;100.00
13367;BME280;6752;52.612;13.630;2022-09-09T07:31:01;100450.13;;;22.10;100.00
13367;BME280;6752;52.612;13.630;2022-09-09T07:36:06;100458.82;;;21.75;98.87
13367;BME280;6752;52.612;13.630;2022-09-09T07:41:08;100461.03;;;21.48;98.11
13367;BME280;6752;52.612;13.630;2022-09-09T07:46:13;100448.97;;;22.83;93.95
13367;BME280;6752;52.612;13.630;2022-09-09T07:51:15;100457.96;;;21.40;95.36
13367;BME280;6752;52.612;13.630;2022-09-09T07:56:20;100470.34;;;21.85;91.26
13367;BME280;6752;52.612;13.630;2022-09-09T08:01:31;100472.20;;;22.27;90.40
13367;BME280;6752;52.612;13.630;2022-09-09T08:06:29;100464.25;;;23.24;83.86
13367;BME280;6752;52.612;13.630;2022-09-09T08:11:30;100461.78;;;23.61;84.54
13367;BME280;6752;52.612;13.630;2022-09-09T08:16:33;100470.85;;;23.21;84.54
13367;BME280;6752;52.612;13.630;2022-09-09T08:21:36;100473.79;;;23.59;84.80
13367;BME280;6752;52.612;13.630;2022-09-09T08:26:38;100472.28;;;24.41;80.81
13367;BME280;6752;52.612;13.630;2022-09-09T08:31:46;100469.48;;;24.12;80.47
13367;BME280;6752;52.612;13.630;2022-09-09T08:36:48;100474.40;;;23.99;79.21
13367;BME280;6752;52.612;13.630;2022-09-09T08:52:17;100487.05;;;23.76;82.75
13367;BME280;6752;52.612;13.630;2022-09-09T08:57:13;100486.81;;;22.95;83.53
13367;BME280;6752;52.612;13.630;2022-09-09T09:02:28;100494.91;;;22.68;84.33
13367;BME280;6752;52.612;13.630;2022-09-09T09:07:47;100495.10;;;22.42;83.97
13367;BME280;6752;52.612;13.630;2022-09-09T09:12:45;100496.53;;;22.72;86.36
13367;BME280;6752;52.612;13.630;2022-09-09T09:17:48;100491.53;;;23.15;82.40
13367;BME280;6752;52.612;13.630;2022-09-09T09:22:53;100487.08;;;23.69;81.97
13367;BME280;6752;52.612;13.630;2022-09-09T09:28:11;100492.50;;;23.36;83.36
13367;BME280;6752;52.612;13.630;2022-09-09T09:33:25;100488.36;;;22.39;84.87
13367;BME280;6752;52.612;13.630;2022-09-09T09:38:26;100481.88;;;23.38;82.32
13367;BME280;6752;52.612;13.630;2022-09-09T09:43:32;100484.52;;;23.45;80.33
13367;BME280;6752;52.612;13.630;2022-09-09T09:48:30;100469.23;;;24.29;75.97
13367;BME280;6752;52.612;13.630;2022-09-09T09:53:33;100481.94;;;25.01;77.83
13367;BME280;6752;52.612;13.630;2022-09-09T10:03:51;100478.65;;;24.37;75.74
13367;BME280;6752;52.612;13.630;2022-09-09T10:08:52;100480.55;;;24.86;72.95
13367;BME280;6752;52.612;13.630;2022-09-09T10:14:05;100478.80;;;26.05;68.90
13367;BME280;6752;52.612;13.630;2022-09-09T10:19:09;100484.53;;;25.42;72.66
13367;BME280;6752;52.612;13.630;2022-09-09T10:24:22;100483.03;;;27.20;64.80
13367;BME280;6752;52.612;13.630;2022-09-09T10:29:42;100479.50;;;26.52;69.03
13367;BME280;6752;52.612;13.630;2022-09-09T10:34:55;100486.20;;;27.00;69.93
13367;BME280;6752;52.612;13.630;2022-09-09T10:40:24;100492.59;;;26.36;66.93
13367;BME280;6752;52.612;13.630;2022-09-09T10:50:45;100487.19;;;26.87;72.25
13367;BME280;6752;52.612;13.630;2022-09-09T10:55:48;100478.80;;;27.29;66.78
13367;BME280;6752;52.612;13.630;2022-09-09T11:00:52;100492.69;;;26.04;68.03
13367;BME280;6752;52.612;13.630;2022-09-09T11:06:06;100497.53;;;25.06;70.60
13367;BME280;6752;52.612;13.630;2022-09-09T11:11:21;100499.23;;;26.51;66.17
13367;BME280;6752;52.612;13.630;2022-09-09T11:21:47;100492.16;;;26.53;63.99
13367;BME280;6752;52.612;13.630;2022-09-09T11:26:51;100482.31;;;28.80;62.10
13367;BME280;6752;52.612;13.630;2022-09-09T11:32:18;100483.66;;;29.01;61.89
13367;BME280;6752;52.612;13.630;2022-09-09T11:37:53;100487.33;;;28.46;61.78
13367;BME280;6752;52.612;13.630;2022-09-09T11:43:12;100481.14;;;28.97;58.98
13367;BME280;6752;52.612;13.630;2022-09-09T11:48:31;100478.56;;;27.72;59.93
13367;BME280;6752;52.612;13.630;2022-09-09T11:53:31;100468.28;;;29.39;58.21
13367;BME280;6752;52.612;13.630;2022-09-09T11:58:41;100464.49;;;28.80;59.03
13367;BME280;6752;52.612;13.630;2022-09-09T12:03:48;100468.05;;;26.83;62.35
13367;BME280;6752;52.612;13.630;2022-09-09T12:08:53;100459.84;;;28.39;59.00
13367;BME280;6752;52.612;13.630;2022-09-09T12:13:56;100450.62;;;27.24;61.73
13367;BME280;6752;52.612;13.630;2022-09-09T12:19:02;100446.48;;;29.04;59.81
13367;BME280;6752;52.612;13.630;2022-09-09T12:24:03;100453.66;;;26.97;62.35
13367;BME280;6752;52.612;13.630;2022-09-09T12:34:38;100438.16;;;26.47;59.25
13367;BME280;6752;52.612;13.630;2022-09-09T12:39:43;100435.84;;;27.69;61.46
13367;BME280;6752;52.612;13.630;2022-09-09T12:44:50;100433.67;;;26.97;61.03
13367;BME280;6752;52.612;13.630;2022-09-09T12:49:44;100434.92;;;26.59;62.26
13367;BME280;6752;52.612;13.630;2022-09-09T12:54:46;100432.66;;;26.44;60.04
13367;BME280;6752;52.612;13.630;2022-09-09T12:59:49;100430.89;;;25.66;62.27
13367;BME280;6752;52.612;13.630;2022-09-09T13:04:51;100427.49;;;26.23;63.50
13367;BME280;6752;52.612;13.630;2022-09-09T13:09:53;100436.44;;;26.67;61.81
13367;BME280;6752;52.612;13.630;2022-09-09T13:14:56;100433.99;;;26.38;64.45
13367;BME280;6752;52.612;13.630;2022-09-09T13:19:58;100435.62;;;25.48;64.21
13367;BME280;6752;52.612;13.630;2022-09-09T13:25:51;100431.77;;;25.51;66.58
13367;BME280;6752;52.612;13.630;2022-09-09T13:30:19;100430.50;;;26.05;66.20
13367;BME280;6752;52.612;13.630;2022-09-09T13:35:22;100426.39;;;25.13;64.88
13367;BME280;6752;52.612;13.630;2022-09-09T13:40:16;100411.26;;;25.06;66.38
13367;BME280;6752;52.612;13.630;2022-09-09T13:45:19;100407.41;;;25.63;63.34
13367;BME280;6752;52.612;13.630;2022-09-09T13:50:21;100406.84;;;26.07;62.73
13367;BME280;6752;52.612;13.630;2022-09-09T13:55:23;100401.23;;;25.50;64.89
13367;BME280;6752;52.612;13.630;2022-09-09T14:00:25;100400.69;;;25.55;65.73
13367;BME280;6752;52.612;13.630;2022-09-09T14:05:28;100398.92;;;27.00;60.72
13367;BME280;6752;52.612;13.630;2022-09-09T14:10:30;100403.42;;;27.28;57.48
13367;BME280;6752;52.612;13.630;2022-09-09T14:15:32;100403.19;;;26.79;60.08
13367;BME280;6752;52.612;13.630;2022-09-09T14:20:35;100409.44;;;26.16;62.50
13367;BME280;6752;52.612;13.630;2022-09-09T14:25:39;100412.29;;;25.27;64.55
13367;BME280;6752;52.612;13.630;2022-09-09T14:30:39;100404.09;;;24.78;65.80
13367;BME280;6752;52.612;13.630;2022-09-09T14:35:41;100407.38;;;24.80;67.73
13367;BME280;6752;52.612;13.630;2022-09-09T14:40:44;100406.17;;;25.03;66.88
13367;BME280;6752;52.612;13.630;2022-09-09T14:45:46;100402.35;;;24.95;66.21
13367;BME280;6752;52.612;13.630;2022-09-09T14:50:48;100401.45;;;24.97;66.61
13367;BME280;6752;52.612;13.630;2022-09-09T14:55:51;100387.31;;;25.76;63.97
13367;BME280;6752;52.612;13.630;2022-09-09T15:00:53;100398.00;;;24.91;65.19
13367;BME280;6752;52.612;13.630;2022-09-09T15:05:55;100402.24;;;25.63;62.36
13367;BME280;6752;52.612;13.630;2022-09-09T15:11:01;100402.56;;;25.03;64.87
13367;BME280;6752;52.612;13.630;2022-09-09T15:16:04;100411.95;;;24.76;66.83
13367;BME280;6752;52.612;13.630;2022-09-09T15:21:06;100403.73;;;24.36;67.02
13367;BME280;6752;52.612;13.630;2022-09-09T15:26:08;100399.30;;;24.34;66.68
13367;BME280;6752;52.612;13.630;2022-09-09T15:31:17;100408.23;;;24.34;67.41
13367;BME280;6752;52.612;13.630;2022-09-09T15:36:24;100410.25;;;24.38;69.87
13367;BME280;6752;52.612;13.630;2022-09-09T15:41:23;100405.02;;;25.33;67.30
13367;BME280;6752;52.612;13.630;2022-09-09T15:46:38;100383.44;;;25.66;65.56
13367;BME280;6752;52.612;13.630;2022-09-09T15:51:41;100373.28;;;25.57;65.26
13367;BME280;6752;52.612;13.630;2022-09-09T15:56:43;100366.63;;;25.34;67.11
13367;BME280;6752;52.612;13.630;2022-09-09T16:01:45;100375.31;;;24.56;67.86
13367;BME280;6752;52.612;13.630;2022-09-09T16:06:47;100385.29;;;24.22;68.65
13367;BME280;6752;52.612;13.630;2022-09-09T16:11:50;100403.14;;;24.09;69.80
13367;BME280;6752;52.612;13.630;2022-09-09T16:16:52;100406.11;;;24.35;70.88
13367;BME280;6752;52.612;13.630;2022-09-09T16:21:54;100415.98;;;24.08;70.42
13367;BME280;6752;52.612;13.630;2022-09-09T16:26:56;100410.63;;;24.00;72.26
13367;BME280;6752;52.612;13.630;2022-09-09T16:31:59;100416.05;;;23.40;74.48
13367;BME280;6752;52.612;13.630;2022-09-09T16:37:01;100424.02;;;23.01;77.56
13367;BME280;6752;52.612;13.630;2022-09-09T16:42:04;100420.08;;;22.45;82.32
13367;BME280;6752;52.612;13.630;2022-09-09T16:47:06;100421.41;;;22.47;83.15
13367;BME280;6752;52.612;13.630;2022-09-09T16:52:09;100422.03;;;22.21;85.58
13367;BME280;6752;52.612;13.630;2022-09-09T16:57:11;100421.02;;;21.82;86.96
13367;BME280;6752;52.612;13.630;2022-09-09T17:02:14;100418.45;;;21.76;87.23
13367;BME280;6752;52.612;13.630;2022-09-09T17:07:16;100417.34;;;21.49;89.21
13367;BME280;6752;52.612;13.630;2022-09-09T17:12:18;100427.72;;;21.50;92.47
13367;BME280;6752;52.612;13.630;2022-09-09T17:17:21;100421.10;;;21.30;94.16
13367;BME280;6752;52.612;13.630;2022-09-09T17:22:23;100418.88;;;21.05;94.61
13367;BME280;6752;52.612;13.630;2022-09-09T17:27:25;100411.53;;;20.96;95.48
13367;BME280;6752;52.612;13.630;2022-09-09T17:32:28;100399.77;;;20.85;94.18
13367;BME280;6752;52.612;13.630;2022-09-09T17:37:30;100409.23;;;20.55;90.08
13367;BME280;6752;52.612;13.630;2022-09-09T17:42:33;100415.05;;;21.13;87.65
13367;BME280;6752;52.612;13.630;2022-09-09T17:47:35;100411.64;;;20.50;86.29
13367;BME280;6752;52.612;13.630;2022-09-09T17:52:37;100410.43;;;20.29;83.44
13367;BME280;6752;52.612;13.630;2022-09-09T17:57:40;100424.97;;;19.99;82.68
13367;BME280;6752;52.612;13.630;2022-09-09T18:02:42;100419.02;;;19.62;83.55
13367;BME280;6752;52.612;13.630;2022-09-09T18:07:45;100419.83;;;19.87;83.97
13367;BME280;6752;52.612;13.630;2022-09-09T18:12:47;100426.27;;;19.51;85.53
13367;BME280;6752;52.612;13.630;2022-09-09T18:17:49;100444.91;;;19.27;88.14
13367;BME280;6752;52.612;13.630;2022-09-09T18:22:51;100438.86;;;19.23;89.58
13367;BME280;6752;52.612;13.630;2022-09-09T18:27:54;100428.51;;;19.21;88.84
13367;BME280;6752;52.612;13.630;2022-09-09T18:32:56;100442.28;;;18.92;91.06
13367;BME280;6752;52.612;13.630;2022-09-09T18:37:58;100460.99;;;18.78;90.17
13367;BME280;6752;52.612;13.630;2022-09-09T18:43:01;100476.87;;;18.69;91.58
13367;BME280;6752;52.612;13.630;2022-09-09T18:48:03;100485.84;;;18.60;89.65
13367;BME280;6752;52.612;13.630;2022-09-09T18:53:06;100497.18;;;18.51;91.08
13367;BME280;6752;52.612;13.630;2022-09-09T18:58:08;100497.72;;;18.55;90.70
13367;BME280;6752;52.612;13.630;2022-09-09T19:03:10;100515.94;;;18.56;91.23
13367;BME280;6752;52.612;13.630;2022-09-09T19:08:13;100514.02;;;18.34;92.63
13367;BME280;6752;52.612;13.630;2022-09-09T19:13:15;100501.05;;;18.29;94.02
13367;BME280;6752;52.612;13.630;2022-09-09T19:18:17;100506.28;;;18.13;95.72
13367;BME280;6752;52.612;13.630;2022-09-09T19:23:20;100502.84;;;18.09;97.53
13367;BME280;6752;52.612;13.630;2022-09-09T19:28:22;100501.86;;;18.15;96.38
13367;BME280;6752;52.612;13.630;2022-09-09T19:33:24;100507.53;;;18.04;97.66
13367;BME280;6752;52.612;13.630;2022-09-09T19:38:26;100511.53;;;17.99;99.29
13367;BME280;6752;52.612;13.630;2022-09-09T19:43:28;100513.42;;;17.94;99.21
13367;BME280;6752;52.612;13.630;2022-09-09T19:48:34;100495.12;;;18.01;97.18
13367;BME280;6752;52.612;13.630;2022-09-09T19:53:37;100485.02;;;17.88;100.00
13367;BME280;6752;52.612;13.630;2022-09-09T19:58:39;100500.61;;;17.49;100.00
13367;BME280;6752;52.612;13.630;2022-09-09T20:03:42;100497.61;;;17.51;100.00
13367;BME280;6752;52.612;13.630;2022-09-09T20:08:44;100498.31;;;17.57;100.00
13367;BME280;6752;52.612;13.630;2022-09-09T20:13:48;100501.00;;;17.40;100.00
13367;BME280;6752;52.612;13.630;2022-09-09T20:18:51;100500.02;;;17.35;100.00
13367;BME280;6752;52.612;13.630;2022-09-09T20:23:53;100498.32;;;17.26;100.00
13367;BME280;6752;52.612;13.630;2022-09-09T20:28:55;100509.03;;;17.17;100.00
13367;BME280;6752;52.612;13.630;2022-09-09T20:33:57;100521.59;;;17.24;100.00
13367;BME280;6752;52.612;13.630;2022-09-09T20:39:00;100514.52;;;17.10;100.00
13367;BME280;6752;52.612;13.630;2022-09-09T20:44:12;100507.70;;;16.99;100.00
13367;BME280;6752;52.612;13.630;2022-09-09T20:49:13;100500.25;;;16.97;100.00
13367;BME280;6752;52.612;13.630;2022-09-09T20:54:20;100490.75;;;16.94;100.00
13367;BME280;6752;52.612;13.630;2022-09-09T20:59:18;100492.16;;;16.78;100.00
13367;BME280;6752;52.612;13.630;2022-09-09T21:04:19;100482.44;;;16.65;100.00
13367;BME280;6752;52.612;13.630;2022-09-09T21:09:21;100478.91;;;16.67;100.00
13367;BME280;6752;52.612;13.630;2022-09-09T21:14:24;100479.92;;;16.58;100.00
13367;BME280;6752;52.612;13.630;2022-09-09T21:19:26;100479.59;;;16.68;100.00
13367;BME280;6752;52.612;13.630;2022-09-09T21:24:29;100486.98;;;16.65;100.00
13367;BME280;6752;52.612;13.630;2022-09-09T21:29:31;100483.66;;;16.61;100.00
13367;BME280;6752;52.612;13.630;2022-09-09T21:34:33;100497.98;;;16.47;100.00
13367;BME280;6752;52.612;13.630;2022-09-09T21:39:36;100498.67;;;16.45;100.00
13367;BME280;6752;52.612;13.630;2022-09-09T21:44:38;100507.28;;;16.38;100.00
13367;BME280;6752;52.612;13.630;2022-09-09T21:49:40;100501.63;;;16.34;100.00
13367;BME280;6752;52.612;13.630;2022-09-09T21:54:43;100501.78;;;16.22;100.00
13367;BME280;6752;52.612;13.630;2022-09-09T21:59:45;100498.39;;;16.28;100.00
13367;BME280;6752;52.612;13.630;2022-09-09T22:04:48;100498.88;;;16.20;100.00
13367;BME280;6752;52.612;13.630;2022-09-09T22:09:50;100495.98;;;16.18;100.00
13367;BME280;6752;52.612;13.630;2022-09-09T22:14:52;100492.00;;;16.04;100.00
13367;BME280;6752;52.612;13.630;2022-09-09T22:19:55;100488.53;;;16.14;100.00
13367;BME280;6752;52.612;13.630;2022-09-09T22:24:57;100491.33;;;15.89;100.00
13367;BME280;6752;52.612;13.630;2022-09-09T22:29:59;100493.05;;;15.98;100.00
13367;BME280;6752;52.612;13.630;2022-09-09T22:35:02;100487.23;;;15.92;100.00
13367;BME280;6752;52.612;13.630;2022-09-09T22:40:04;100488.31;;;15.77;100.00
13367;BME280;6752;52.612;13.630;2022-09-09T22:45:07;100489.52;;;15.87;100.00
13367;BME280;6752;52.612;13.630;2022-09-09T22:50:09;100495.38;;;15.84;100.00
13367;BME280;6752;52.612;13.630;2022-09-09T22:55:12;100500.80;;;15.74;100.00
13367;BME280;6752;52.612;13.630;2022-09-09T23:00:14;100491.11;;;15.83;100.00
13367;BME280;6752;52.612;13.630;2022-09-09T23:05:16;100489.23;;;15.61;100.00
13367;BME280;6752;52.612;13.630;2022-09-09T23:10:19;100484.54;;;15.70;100.00
13367;BME280;6752;52.612;13.630;2022-09-09T23:15:21;100486.05;;;15.69;100.00
13367;BME280;6752;52.612;13.630;2022-09-09T23:20:26;100503.98;;;15.63;100.00
13367;BME280;6752;52.612;13.630;2022-09-09T23:25:33;100496.95;;;15.75;100.00
13367;BME280;6752;52.612;13.630;2022-09-09T23:30:34;100485.56;;;15.61;100.00
13367;BME280;6752;52.612;13.630;2022-09-09T23:35:36;100475.02;;;15.56;100.00
13367;BME280;6752;52.612;13.630;2022-09-09T23:40:38;100479.36;;;15.52;100.00
13367;BME280;6752;52.612;13.630;2022-09-09T23:45:41;100481.91;;;15.45;100.00
13367;BME280;6752;52.612;13.630;2022-09-09T23:50:43;100480.67;;;15.44;100.00
13367;BME280;6752;52.612;13.630;2022-09-09T23:55:46;100475.98;;;15.42;100.00
